Date,TemperatureHighF,TemperatureAvgF,TemperatureLowF,DewpointHighF,DewpointAvgF,DewpointLowF,HumidityHigh,HumidityAvg,HumidityLow,PressureMaxIn,PressureMinIn,WindSpeedMaxMPH,WindSpeedAvgMPH,GustSpeedMaxMPH,PrecipitationSumIn
2012-1-1,44.0,31.0,21.0,30.0,24.8,19.0,93,79,53,0.00,40.00,7,4,11,0.00
2012-1-2,53.0,38.2,28.0,32.0,27.7,23.0,91,69,35,0.00,40.00,15,6,29,0.00
2012-1-3,47.0,34.1,25.0,33.0,28.9,24.0,97,83,54,0.00,40.00,6,3,9,0.01
2012-1-4,50.0,39.9,26.0,32.0,27.1,22.0,95,65,36,0.00,40.00,11,4,20,0.01
2012-1-5,43.0,37.0,26.0,37.0,29.8,23.0,90,76,55,0.00,40.00,11,6,19,0.00
2012-1-6,40.0,28.7,21.0,29.0,24.2,20.0,95,84,60,0.00,40.00,6,4,11,0.00
2012-1-7,40.0,29.5,21.0,29.0,23.8,19.0,95,80,52,0.00,40.00,5,3,7,0.01
2012-1-8,44.0,29.7,18.0,24.0,17.5,13.0,89,64,31,0.00,40.00,6,3,8,0.01
2012-1-9,48.0,31.9,19.0,22.0,18.7,15.0,84,60,35,0.00,40.00,5,3,8,0.00
2012-1-10,49.0,34.1,27.0,31.0,21.3,14.0,71,60,39,0.00,40.00,9,4,15,0.00
2012-1-11,39.0,27.8,19.0,17.0,13.0,10.0,68,54,37,0.00,40.00,9,6,16,0.00
2012-1-12,43.0,27.7,17.0,16.0,13.0,10.0,81,57,25,0.00,40.00,10,6,16,0.00
2012-1-13,50.0,31.1,16.0,18.0,13.1,10.0,77,50,20,0.00,40.00,10,5,15,0.00
2012-1-14,51.0,33.9,20.0,24.0,13.9,7.0,72,48,17,0.00,40.00,21,8,32,0.00
2012-1-15,30.0,23.3,16.0,25.0,18.4,13.0,92,81,62,0.00,40.00,18,8,32,0.01
2012-1-16,28.0,19.1,13.0,15.0,11.8,5.0,90,75,48,0.00,40.00,12,5,20,0.08
2012-1-17,30.0,24.4,10.0,20.0,15.2,5.0,85,68,60,0.00,40.00,22,11,36,0.02
2012-1-18,33.0,29.0,26.0,32.0,23.3,-99.9,100,90,71,0.00,40.00,13,-32,28,0.00
2012-1-19,34.0,33.0,32.0,34.0,32.8,32.0,100,99,97,0.00,40.00,13,10,27,0.64
2012-1-20,36.0,34.2,32.0,36.0,33.2,31.0,99,96,92,0.00,40.00,8,6,25,1.36
2012-1-21,37.0,31.2,25.0,35.0,27.6,19.0,98,86,68,0.00,40.00,19,10,32,0.72
2012-1-22,33.0,28.9,22.0,29.0,25.7,20.0,98,88,76,0.00,40.00,12,7,26,0.04
2012-1-23,40.0,31.1,27.0,33.0,29.2,27.0,98,92,77,0.00,40.00,5,3,11,0.22
2012-1-24,46.0,37.4,29.0,42.0,34.4,27.0,98,90,81,0.00,40.00,12,8,27,0.16
2012-1-25,49.0,42.6,39.0,40.0,36.7,32.0,98,81,60,0.00,40.00,9,5,21,0.09
2012-1-26,44.0,37.4,24.0,41.0,31.4,19.0,98,81,46,0.00,40.00,14,7,21,0.48
2012-1-27,43.0,25.5,14.0,19.0,12.5,3.0,92,64,20,0.00,40.00,9,4,12,0.01
2012-1-28,44.0,25.8,13.0,17.0,12.7,9.0,82,60,30,0.00,40.00,7,4,11,0.00
2012-1-29,44.0,33.0,22.0,35.0,22.4,15.0,92,66,45,0.00,40.00,17,6,28,0.02
2012-1-30,48.0,38.7,29.0,34.0,28.0,22.0,94,67,45,0.00,40.00,12,5,21,0.03
2012-1-31,44.0,32.2,21.0,30.0,24.0,19.0,95,73,46,0.00,40.00,8,3,19,0.00
2012-2-1,40.0,33.5,26.0,33.0,27.1,20.0,98,79,52,0.00,40.00,11,6,30,0.17
2012-2-2,47.0,30.1,20.0,27.0,19.1,7.0,95,68,26,0.00,40.00,7,5,12,0.04
2012-2-3,44.0,30.8,19.0,15.0,13.0,11.0,70,50,30,0.00,40.00,7,5,14,0.00
2012-2-4,46.0,31.0,19.0,22.0,16.7,11.0,73,57,38,0.00,40.00,8,6,12,0.00
2012-2-5,47.0,32.0,19.0,21.0,17.8,14.0,81,59,34,0.00,40.00,7,5,12,0.00
2012-2-6,49.0,32.3,18.0,20.0,15.7,12.0,81,54,32,0.00,40.00,9,6,13,0.00
2012-2-7,42.0,34.4,29.0,34.0,22.9,12.0,93,65,41,0.00,40.00,8,5,14,0.01
2012-2-8,38.0,33.7,29.0,37.0,33.0,28.0,100,97,88,0.00,40.00,5,2,9,0.14
2012-2-9,48.0,37.6,31.0,45.0,35.9,31.0,100,94,76,0.00,40.00,5,3,58,0.01
2012-2-10,54.0,42.4,34.0,38.0,34.1,31.0,98,75,47,0.00,40.00,8,4,15,0.08
2012-2-11,46.0,36.2,30.0,36.0,28.2,15.0,99,76,44,0.00,40.00,10,5,17,0.10
2012-2-12,44.0,31.6,21.0,31.0,21.1,16.0,98,68,38,0.00,40.00,9,4,17,0.01
2012-2-13,36.0,32.2,29.0,31.0,28.2,23.0,99,85,72,0.00,40.00,8,5,16,0.13
2012-2-14,36.0,28.4,23.0,25.0,21.6,16.0,95,76,48,0.00,40.00,18,7,36,0.03
2012-2-15,42.0,27.2,16.0,19.0,15.5,13.0,90,65,30,0.00,40.00,8,4,14,0.00
2012-2-16,42.0,31.6,21.0,28.0,21.0,14.0,78,65,42,0.00,40.00,6,4,11,0.00
2012-2-17,50.0,39.0,29.0,37.0,32.3,27.0,93,78,57,0.00,40.00,13,5,31,0.02
2012-2-18,38.0,29.9,22.0,33.0,20.0,16.0,83,67,49,0.00,40.00,19,8,32,0.01
2012-2-19,40.0,26.3,13.0,27.0,16.2,10.0,91,69,36,0.00,40.00,8,4,14,0.00
2012-2-20,40.0,34.2,29.0,36.0,31.9,27.0,98,91,79,0.00,40.00,12,5,20,0.27
2012-2-21,51.0,41.9,36.0,41.0,37.5,33.0,98,85,67,0.00,40.00,11,5,16,0.08
2012-2-22,48.0,42.2,29.0,40.0,33.8,11.0,97,72,38,0.00,40.00,21,10,35,0.00
2012-2-23,47.0,32.9,22.0,24.0,16.4,7.0,84,55,22,0.00,40.00,7,4,14,0.00
2012-2-24,58.0,36.3,23.0,31.0,23.6,18.0,94,65,24,0.00,40.00,30,9,53,0.02
2012-2-25,29.0,25.0,18.0,25.0,19.0,13.0,94,78,55,0.00,40.00,20,13,44,0.04
2012-2-26,34.0,23.8,13.0,17.0,13.6,10.0,88,67,38,0.00,40.00,6,3,11,0.01
2012-2-27,40.0,27.2,21.0,18.0,14.5,10.0,86,62,29,0.00,40.00,8,6,17,0.00
2012-2-28,33.0,24.1,13.0,28.0,18.6,10.0,97,80,54,0.00,40.00,25,8,36,0.00
2012-2-29,29.0,24.6,21.0,26.0,22.4,18.0,96,91,87,0.00,40.00,25,11,40,0.05
2012-3-1,32.0,26.2,18.0,25.0,20.9,12.0,96,81,59,0.00,40.00,16,9,30,0.15
2012-3-2,42.0,25.7,8.0,26.0,17.7,5.0,93,74,45,0.00,40.00,5,4,11,0.01
2012-3-3,49.0,32.4,19.0,31.0,25.6,17.0,95,78,49,0.00,40.00,6,3,8,0.01
2012-3-4,53.0,36.9,23.0,32.0,27.6,22.0,97,73,42,0.00,40.00,5,4,9,0.01
2012-3-5,51.0,37.3,26.0,32.0,26.2,21.0,96,68,33,0.00,40.00,18,8,28,0.01
2012-3-6,32.0,25.5,19.0,24.0,14.4,9.0,90,64,43,0.00,40.00,19,9,35,0.01
2012-3-7,47.0,29.4,11.0,17.0,11.9,6.0,87,53,25,0.00,40.00,8,4,12,0.01
2012-3-8,56.0,38.5,23.0,24.0,20.1,15.0,76,50,28,0.00,40.00,7,4,11,0.00
2012-3-9,63.0,42.5,25.0,26.0,22.5,20.0,80,49,21,0.00,40.00,8,4,17,0.00
2012-3-10,54.0,44.2,38.0,34.0,24.9,-99.9,81,51,30,0.00,40.00,13,7,22,0.00
2012-3-11,38.0,32.9,27.0,35.0,27.2,20.0,98,80,62,0.00,40.00,16,10,26,0.11
2012-3-12,44.0,35.1,29.0,27.0,23.4,21.0,75,62,49,0.00,40.00,15,10,32,0.01
2012-3-13,39.0,32.3,26.0,31.0,26.0,23.0,97,79,53,0.00,40.00,18,11,34,0.15
2012-3-14,41.0,35.5,29.0,36.0,32.3,28.0,98,89,79,0.00,40.00,10,6,19,0.21
2012-3-15,44.0,40.8,34.0,41.0,37.8,32.0,97,89,75,0.00,40.00,14,8,26,0.46
2012-3-16,37.0,34.0,32.0,35.0,31.9,21.0,98,92,64,0.00,40.00,27,7,42,0.55
2012-3-17,39.0,31.4,25.0,25.0,19.6,8.0,90,64,30,0.00,40.00,14,7,29,0.16
2012-3-18,33.0,27.1,20.0,25.0,19.1,11.0,88,72,50,0.00,40.00,14,6,26,0.01
2012-3-19,35.0,26.0,13.0,27.0,17.5,10.0,89,71,56,0.00,40.00,8,5,17,0.01
2012-3-20,44.0,36.3,29.0,39.0,32.1,-99.9,98,89,78,0.00,40.00,13,9,26,0.31
2012-3-21,52.0,43.7,37.0,38.0,35.0,33.0,94,72,54,0.00,40.00,17,10,29,0.02
2012-3-22,42.0,33.4,26.0,36.0,24.0,-99.9,95,71,50,0.00,40.00,17,-5,30,0.04
2012-3-23,45.0,34.2,25.0,27.0,22.8,16.0,95,67,34,0.00,40.00,9,4,19,0.02
2012-3-24,48.0,40.7,34.0,25.0,20.3,15.0,64,45,28,0.00,40.00,13,5,27,0.02
2012-3-25,43.0,35.7,30.0,35.0,29.0,23.0,93,77,58,0.00,40.00,10,4,23,0.06
2012-3-26,42.0,33.7,26.0,29.0,24.2,21.0,86,69,45,0.00,40.00,12,6,26,0.02
2012-3-27,45.0,37.0,33.0,35.0,29.0,24.0,93,73,58,0.00,40.00,15,10,38,0.05
2012-3-28,43.0,35.9,30.0,32.0,28.9,23.0,98,77,47,0.00,40.00,19,8,29,0.43
2012-3-29,41.0,37.6,33.0,37.0,33.5,27.0,96,86,68,0.00,40.00,12,9,28,0.30
2012-3-30,53.0,44.7,39.0,42.0,38.9,37.0,95,81,62,0.00,40.00,13,10,32,0.58
2012-3-31,46.0,38.8,32.0,39.0,31.9,27.0,97,76,63,0.00,40.00,16,11,35,0.43
2012-4-1,37.0,31.2,23.0,30.0,24.5,19.0,96,77,52,0.00,40.00,16,10,32,0.04
2012-4-2,52.0,34.5,21.0,31.0,25.8,19.0,94,74,39,0.00,40.00,6,3,11,0.01
2012-4-3,54.0,39.9,29.0,35.0,29.3,23.0,92,69,35,0.00,40.00,14,7,28,0.00
2012-4-4,38.0,29.4,25.0,26.0,22.8,16.0,95,78,48,0.00,40.00,13,6,24,0.06
2012-4-5,35.0,26.6,20.0,25.0,18.7,15.0,91,72,51,0.00,40.00,9,5,18,0.02
2012-4-6,41.0,28.5,17.0,21.0,17.4,14.0,91,66,33,0.00,40.00,9,4,15,0.06
2012-4-7,54.0,39.0,26.0,23.0,17.9,13.0,67,46,20,0.00,40.00,8,5,17,0.01
2012-4-8,61.0,45.2,31.0,28.0,19.5,10.0,81,44,14,0.00,40.00,10,6,24,0.00
2012-4-9,61.0,48.6,30.0,23.0,15.0,8.0,56,28,16,0.00,40.00,11,5,26,0.00
2012-4-10,52.0,44.9,40.0,36.0,28.3,17.0,81,54,34,0.00,40.00,11,6,19,0.00
2012-4-11,49.0,38.4,34.0,37.0,33.6,28.0,98,84,53,0.00,40.00,11,4,24,0.22
2012-4-12,42.0,35.4,30.0,32.0,29.0,26.0,97,79,57,0.00,40.00,11,6,25,0.19
2012-4-13,44.0,35.0,31.0,37.0,31.8,29.0,98,88,59,0.00,40.00,11,5,19,0.14
2012-4-14,51.0,41.1,32.0,35.0,29.9,24.0,98,68,36,0.00,40.00,17,8,30,0.02
2012-4-15,59.0,42.3,27.0,38.0,25.8,13.0,91,59,16,0.00,40.00,12,5,20,0.02
2012-4-16,52.0,44.2,40.0,41.0,38.8,36.0,95,82,62,0.00,40.00,15,8,25,0.09
2012-4-17,50.0,39.2,30.0,41.0,33.0,27.0,98,80,46,0.00,40.00,16,6,29,0.01
2012-4-18,52.0,42.6,38.0,41.0,36.8,32.0,98,81,55,0.00,40.00,14,6,24,0.07
2012-4-19,54.0,48.6,43.0,51.0,46.0,42.0,97,91,80,0.00,40.00,7,5,15,0.10
2012-4-20,69.0,53.4,36.0,49.0,41.7,36.0,99,70,32,0.00,40.00,11,4,15,0.01
2012-4-21,76.0,56.4,37.0,47.0,39.6,31.0,98,61,19,0.00,40.00,8,4,15,0.01
2012-4-22,79.0,60.0,38.0,46.0,39.5,34.0,90,52,25,0.00,40.00,9,6,19,0.00
2012-4-23,78.0,60.3,43.0,47.0,41.0,36.0,82,53,23,0.00,40.00,11,5,29,0.00
2012-4-24,70.0,55.9,43.0,45.0,41.2,33.0,95,63,25,0.00,40.00,15,6,26,0.00
2012-4-25,60.0,51.7,47.0,45.0,41.6,39.0,84,69,48,0.00,40.00,12,7,29,0.00
2012-4-26,47.0,40.1,34.0,43.0,32.3,24.0,96,75,49,0.00,40.00,17,11,31,0.41
2012-4-27,47.0,38.7,31.0,30.0,26.7,22.0,86,64,42,0.00,40.00,11,6,18,0.01
2012-4-28,62.0,46.7,31.0,39.0,34.0,28.0,88,64,40,0.00,40.00,10,6,18,0.00
2012-4-29,67.0,51.8,34.0,40.0,34.7,25.0,95,58,25,0.00,40.00,13,6,23,0.00
2012-4-30,54.0,49.9,41.0,43.0,36.5,29.0,80,61,41,0.00,40.00,20,14,40,0.00
2012-5-1,54.0,41.1,28.0,29.0,24.8,12.0,83,56,20,0.00,40.00,15,7,25,0.00
2012-5-2,55.0,39.5,26.0,33.0,25.0,16.0,86,60,25,0.00,40.00,12,6,22,0.00
2012-5-3,51.0,43.5,38.0,41.0,36.6,32.0,94,77,62,0.00,40.00,16,10,33,0.16
2012-5-4,46.0,38.8,32.0,34.0,29.3,25.0,85,70,51,0.00,40.00,13,9,25,0.02
2012-5-5,55.0,39.2,23.0,32.0,25.9,21.0,92,62,36,0.00,40.00,11,6,19,0.00
2012-5-6,66.0,48.2,29.0,31.0,26.9,21.0,92,51,20,0.00,40.00,10,6,17,0.00
2012-5-7,71.0,53.7,36.0,33.0,27.8,23.0,73,42,17,0.00,40.00,9,5,15,0.00
2012-5-8,76.0,56.7,38.0,42.0,35.1,26.0,81,50,17,0.00,40.00,10,6,19,0.00
2012-5-9,65.0,51.4,38.0,41.0,35.2,23.0,92,58,21,0.00,40.00,14,7,23,0.00
2012-5-10,64.0,46.3,24.0,30.0,20.2,9.0,86,43,14,0.00,40.00,11,6,19,0.00
2012-5-11,69.0,50.2,30.0,28.0,20.8,12.0,60,34,11,0.00,40.00,8,5,15,0.00
2012-5-12,74.0,54.6,38.0,33.0,26.0,22.0,51,35,16,0.00,40.00,8,6,16,0.00
2012-5-13,82.0,63.3,45.0,37.0,32.0,24.0,57,35,12,0.00,40.00,9,6,15,0.00
2012-5-14,81.0,62.7,49.0,47.0,37.4,33.0,62,41,18,0.00,40.00,13,6,25,0.00
2012-5-15,82.0,66.2,51.0,45.0,39.8,34.0,67,41,18,0.00,40.00,15,6,22,0.00
2012-5-16,75.0,60.1,44.0,47.0,39.6,34.0,86,52,24,0.00,40.00,14,6,25,0.00
2012-5-17,63.0,52.2,38.0,39.0,31.5,13.0,68,47,26,0.00,40.00,15,7,26,0.00
2012-5-18,64.0,47.3,26.0,30.0,21.5,11.0,69,40,14,0.00,40.00,12,6,19,0.00
2012-5-19,66.0,50.9,33.0,35.0,29.6,25.0,85,48,23,0.00,40.00,13,6,21,0.00
2012-5-20,78.0,57.7,39.0,47.0,38.1,28.0,75,51,27,0.00,40.00,12,4,19,0.00
2012-5-21,63.0,57.1,48.0,49.0,42.4,35.0,79,59,35,0.00,40.00,14,8,30,0.00
2012-5-22,55.0,47.3,42.0,40.0,36.3,32.0,80,66,50,0.00,40.00,20,12,36,0.00
2012-5-23,53.0,44.1,36.0,36.0,31.9,30.0,85,63,44,0.00,40.00,16,8,25,0.00
2012-5-24,47.0,39.5,34.0,37.0,32.4,27.0,92,76,58,0.00,40.00,12,6,21,0.12
2012-5-25,49.0,40.2,31.0,36.0,33.3,27.0,97,78,59,0.00,40.00,14,7,28,0.16
2012-5-26,51.0,43.2,33.0,42.0,34.8,30.0,92,73,49,0.00,40.00,16,6,25,0.08
2012-5-27,61.0,47.5,30.0,40.0,33.9,29.0,96,64,34,0.00,40.00,8,4,16,0.05
2012-5-28,66.0,50.8,35.0,42.0,38.0,34.0,96,66,32,0.00,40.00,11,6,17,0.00
2012-5-29,67.0,53.4,35.0,44.0,35.8,23.0,98,59,20,0.00,40.00,12,6,18,0.00
2012-5-30,77.0,59.1,37.0,43.0,35.4,31.0,83,47,20,0.00,40.00,10,5,16,0.00
2012-5-31,80.0,64.6,45.0,49.0,43.3,39.0,86,51,25,0.00,40.00,10,6,16,0.00
2012-6-1,79.0,65.4,47.0,48.0,44.8,40.0,90,52,26,0.00,40.00,12,7,22,0.00
2012-6-2,66.0,59.4,52.0,51.0,45.4,40.0,84,62,38,0.00,40.00,13,8,22,0.00
2012-6-3,64.0,52.4,40.0,49.0,43.0,39.0,98,73,42,0.00,40.00,12,5,24,0.26
2012-6-4,54.0,46.8,37.0,48.0,42.4,32.0,99,85,63,0.00,40.00,11,7,29,0.91
2012-6-5,48.0,39.9,33.0,35.0,31.9,29.0,90,74,53,0.00,40.00,12,7,24,0.06
2012-6-6,61.0,44.5,28.0,37.0,32.1,27.0,96,66,36,0.00,40.00,9,5,14,0.00
2012-6-7,58.0,46.3,37.0,45.0,38.6,31.0,95,76,53,0.00,40.00,15,7,24,0.07
2012-6-8,51.0,43.4,36.0,32.0,29.3,26.0,78,58,40,0.00,40.00,15,11,23,0.02
2012-6-9,56.0,43.7,31.0,33.0,31.0,29.0,95,65,36,0.00,40.00,15,8,23,0.02
2012-6-10,71.0,52.2,31.0,40.0,31.4,23.0,89,52,19,0.00,40.00,9,6,17,0.02
2012-6-11,76.0,59.7,39.0,44.0,38.1,34.0,87,49,22,0.00,40.00,13,6,22,0.00
2012-6-12,70.0,59.2,43.0,47.0,42.9,33.0,89,58,26,0.00,40.00,14,6,24,0.00
2012-6-13,73.0,57.8,38.0,44.0,39.0,32.0,97,56,25,0.00,40.00,11,6,19,0.00
2012-6-14,75.0,58.0,41.0,42.0,35.0,26.0,75,46,17,0.00,40.00,13,8,23,0.00
2012-6-15,78.0,60.7,41.0,47.0,37.2,30.0,71,45,20,0.00,40.00,10,6,17,0.00
2012-6-16,82.0,63.6,47.0,51.0,46.1,43.0,87,57,28,0.00,40.00,12,5,19,0.00
2012-6-17,78.0,65.7,52.0,51.0,46.3,37.0,88,53,29,0.00,40.00,13,6,23,0.00
2012-6-18,58.0,51.9,41.0,41.0,34.8,32.0,74,53,39,0.00,40.00,13,10,24,0.00
2012-6-19,66.0,50.2,31.0,34.0,30.3,27.0,93,54,24,0.00,40.00,12,7,21,0.00
2012-6-20,79.0,60.3,38.0,41.0,35.5,27.0,89,47,18,0.00,40.00,8,5,15,0.00
2012-6-21,82.0,65.0,44.0,48.0,41.9,31.0,82,46,25,0.00,40.00,13,7,21,0.00
2012-6-22,58.0,53.0,47.0,51.0,46.1,41.0,94,78,62,0.00,40.00,9,5,22,0.17
2012-6-23,55.0,45.6,38.0,41.0,37.7,35.0,97,76,46,0.00,40.00,10,5,17,0.52
2012-6-24,64.0,50.1,36.0,41.0,35.7,30.0,95,63,29,0.00,40.00,9,5,18,0.01
2012-6-25,60.0,47.7,38.0,40.0,36.7,32.0,97,70,36,0.00,40.00,10,5,23,0.14
2012-6-26,60.0,48.5,36.0,39.0,36.9,35.0,98,68,41,0.00,40.00,11,5,20,0.18
2012-6-27,77.0,57.2,38.0,44.0,38.9,34.0,92,56,24,0.00,40.00,10,6,16,0.01
2012-6-28,76.0,58.8,44.0,49.0,43.9,40.0,94,61,27,0.00,40.00,10,5,19,0.00
2012-6-29,74.0,60.2,50.0,52.0,49.1,45.0,97,70,38,0.00,40.00,10,4,15,0.05
2012-6-30,73.0,60.7,50.0,54.0,51.2,48.0,94,73,47,0.00,40.00,14,6,22,0.03
2012-7-1,73.0,62.1,51.0,53.0,50.7,47.0,98,70,41,0.00,40.00,9,5,17,0.04
2012-7-2,78.0,61.5,45.0,52.0,47.5,43.0,98,65,34,0.00,40.00,15,8,25,0.00
2012-7-3,71.0,57.7,44.0,43.0,39.7,37.0,84,55,30,0.00,40.00,13,6,21,0.00
2012-7-4,77.0,59.4,41.0,46.0,39.8,32.0,90,55,21,0.00,40.00,10,6,18,0.00
2012-7-5,80.0,63.4,45.0,48.0,43.7,38.0,80,52,26,0.00,40.00,10,6,17,0.00
2012-7-6,83.0,67.4,50.0,50.0,44.8,35.0,88,51,18,0.00,40.00,10,6,18,0.00
2012-7-7,87.0,70.4,50.0,51.0,45.3,32.0,94,48,14,0.00,40.00,9,5,14,0.00
2012-7-8,88.0,72.3,54.0,55.0,49.1,41.0,87,49,19,0.00,40.00,11,6,20,0.00
2012-7-9,86.0,71.1,55.0,55.0,49.6,45.0,83,51,24,0.00,40.00,10,5,18,0.00
2012-7-10,87.0,72.4,53.0,54.0,50.7,42.0,93,52,21,0.00,40.00,10,6,17,0.00
2012-7-11,90.0,72.8,54.0,56.0,49.8,42.0,84,49,19,0.00,40.00,10,5,16,0.00
2012-7-12,87.0,71.2,56.0,58.0,50.5,45.0,80,52,23,0.00,40.00,11,6,20,0.00
2012-7-13,84.0,68.7,52.0,54.0,49.6,42.0,92,56,28,0.00,40.00,10,6,17,0.00
2012-7-14,78.0,65.4,50.0,51.0,46.1,41.0,81,54,28,0.00,40.00,16,7,24,0.00
2012-7-15,80.0,64.7,47.0,51.0,44.3,25.0,91,53,23,0.00,40.00,14,6,24,0.00
2012-7-16,71.0,57.1,39.0,45.0,38.2,29.0,78,51,36,0.00,40.00,10,5,18,0.00
2012-7-17,71.0,58.3,49.0,47.0,43.3,34.0,84,61,31,0.00,40.00,10,5,17,0.00
2012-7-18,77.0,60.2,44.0,50.0,44.5,38.0,96,62,25,0.00,40.00,10,5,18,0.00
2012-7-19,75.0,61.1,44.0,48.0,45.3,39.0,96,61,27,0.00,40.00,11,5,24,0.00
2012-7-20,73.0,62.8,50.0,49.0,44.9,40.0,89,55,31,0.00,40.00,11,6,19,0.00
2012-7-21,83.0,64.6,44.0,48.0,44.5,39.0,97,56,21,0.00,40.00,9,5,16,0.00
2012-7-22,86.0,66.0,49.0,54.0,47.1,32.0,95,56,25,0.00,40.00,17,7,30,0.00
2012-7-23,85.0,66.8,45.0,43.0,35.7,27.0,71,36,18,0.00,40.00,10,6,15,0.00
2012-7-24,86.0,68.5,51.0,49.0,39.5,31.0,49,36,24,0.00,40.00,12,6,19,0.00
2012-7-25,85.0,67.3,51.0,48.0,43.4,38.0,64,44,26,0.00,40.00,12,6,19,0.00
2012-7-26,85.0,68.9,50.0,50.0,45.6,43.0,78,47,23,0.00,40.00,11,6,20,0.00
2012-7-27,80.0,67.1,52.0,47.0,43.8,38.0,80,47,23,0.00,40.00,13,6,21,0.00
2012-7-28,82.0,63.9,44.0,47.0,41.7,36.0,78,48,23,0.00,40.00,11,6,18,0.00
2012-7-29,83.0,65.9,49.0,50.0,45.6,42.0,87,52,26,0.00,40.00,14,7,23,0.00
2012-7-30,82.0,65.1,46.0,45.0,40.9,37.0,86,47,21,0.00,40.00,11,5,19,0.00
2012-7-31,83.0,65.6,48.0,50.0,43.3,33.0,84,50,23,0.00,40.00,14,7,21,0.00
2012-8-1,81.0,62.1,49.0,48.0,44.3,37.0,85,56,26,0.00,40.00,9,6,18,0.00
2012-8-2,84.0,74.6,60.0,50.0,41.8,34.0,59,34,17,0.00,40.00,11,6,17,0.00
2012-8-3,88.0,69.8,50.0,52.0,45.8,38.0,86,48,17,0.00,40.00,8,6,14,0.00
2012-8-4,92.0,72.4,52.0,51.0,41.4,36.0,54,35,15,0.00,40.00,8,5,14,0.00
2012-8-5,86.0,72.7,61.0,50.0,43.6,38.0,52,36,23,0.00,40.00,9,6,18,0.00
2012-8-6,89.0,69.8,50.0,51.0,43.4,29.0,89,48,12,0.00,40.00,11,6,19,0.00
2012-8-7,87.0,70.4,50.0,51.0,43.3,31.0,87,45,14,0.00,40.00,10,5,17,0.00
2012-8-8,85.0,68.1,54.0,50.0,43.1,31.0,76,46,16,0.00,40.00,11,5,17,0.00
2012-8-9,88.0,68.7,50.0,49.0,44.3,38.0,79,46,17,0.00,40.00,13,6,20,0.00
2012-8-10,87.0,69.6,49.0,52.0,45.9,38.0,94,49,18,0.00,40.00,10,6,17,0.00
2012-8-11,89.0,68.8,50.0,49.0,41.7,33.0,71,43,14,0.00,40.00,8,6,15,0.00
2012-8-12,96.0,74.8,57.0,46.0,36.4,32.0,42,28,11,0.00,40.00,10,5,19,0.00
2012-8-13,93.0,75.6,55.0,51.0,43.9,35.0,68,36,13,0.00,40.00,8,5,12,0.00
2012-8-14,94.0,75.1,57.0,50.0,45.3,38.0,68,40,15,0.00,40.00,12,6,19,0.00
2012-8-15,93.0,70.9,55.0,49.0,39.2,29.0,56,35,15,0.00,40.00,10,7,17,0.00
2012-8-16,92.0,73.6,59.0,53.0,44.2,38.0,54,37,19,0.00,40.00,9,6,17,0.00
2012-8-17,91.0,75.3,58.0,53.0,46.3,43.0,57,38,20,0.00,40.00,8,6,14,0.00
2012-8-18,87.0,72.6,61.0,59.0,51.6,43.0,87,51,26,0.00,40.00,10,5,17,0.13
2012-8-19,86.0,68.7,50.0,51.0,43.3,30.0,83,46,14,0.00,40.00,13,5,18,0.10
2012-8-20,89.0,67.6,46.0,45.0,41.2,38.0,76,42,19,0.00,40.00,11,6,17,0.00
2012-8-21,83.0,67.5,50.0,50.0,44.0,38.0,79,46,21,0.00,40.00,13,6,21,0.00
2012-8-22,82.0,64.2,45.0,47.0,42.5,39.0,87,51,22,0.00,40.00,11,6,18,0.00
2012-8-23,81.0,62.9,46.0,47.0,41.3,27.0,86,51,14,0.00,40.00,12,6,20,0.00
2012-8-24,83.0,59.2,41.0,41.0,34.2,22.0,90,51,11,0.00,40.00,8,6,13,0.00
2012-8-25,84.0,67.3,43.0,40.0,32.5,19.0,42,29,13,0.00,40.00,8,6,16,0.00
2012-8-26,81.0,61.5,44.0,42.0,36.7,26.0,75,44,13,0.00,40.00,13,6,26,0.00
2012-8-27,79.0,59.4,40.0,49.0,36.8,29.0,75,46,23,0.00,40.00,9,5,18,0.00
2012-8-28,77.0,58.4,43.0,48.0,41.4,35.0,90,59,22,0.00,40.00,17,6,27,0.00
2012-8-29,76.0,57.5,39.0,42.0,37.2,27.0,95,53,19,0.00,40.00,6,5,12,0.00
2012-8-30,82.0,61.7,45.0,44.0,38.2,29.0,78,48,15,0.00,40.00,9,6,13,0.00
2012-8-31,82.0,61.1,43.0,45.0,38.9,24.0,77,48,12,0.00,40.00,12,5,20,0.00
2012-9-1,78.0,59.5,44.0,45.0,39.6,30.0,94,55,18,0.00,40.00,10,6,18,0.00
2012-9-2,82.0,60.1,39.0,41.0,33.0,25.0,81,43,13,0.00,40.00,10,6,18,0.00
2012-9-3,84.0,64.1,43.0,40.0,32.8,29.0,65,35,16,0.00,40.00,10,6,16,0.00
2012-9-4,85.0,64.2,45.0,40.0,36.6,32.0,71,41,16,0.00,40.00,8,6,13,0.00
2012-9-5,85.0,64.8,48.0,40.0,35.2,24.0,59,37,12,0.00,40.00,8,5,14,0.00
2012-9-6,84.0,64.5,47.0,43.0,36.0,31.0,62,39,16,0.00,40.00,8,5,14,0.00
2012-9-7,85.0,66.3,47.0,42.0,36.7,35.0,64,37,17,0.00,40.00,10,6,27,0.00
2012-9-8,87.0,66.4,50.0,47.0,39.1,34.0,55,38,21,0.00,40.00,10,6,17,0.00
2012-9-9,78.0,60.6,44.0,41.0,34.7,22.0,77,43,13,0.00,40.00,13,5,20,0.00
2012-9-10,73.0,56.9,37.0,41.0,35.2,30.0,77,48,23,0.00,40.00,10,5,17,0.00
2012-9-11,76.0,54.9,35.0,38.0,29.8,14.0,90,49,11,0.00,40.00,9,7,20,0.00
2012-9-12,82.0,58.0,40.0,34.0,25.1,20.0,48,30,13,0.00,40.00,9,6,15,0.00
2012-9-13,87.0,62.9,46.0,34.0,22.9,16.0,36,24,7,0.00,40.00,10,6,16,0.00
2012-9-14,85.0,64.2,45.0,43.0,32.9,25.0,48,33,18,0.00,40.00,9,6,21,0.00
2012-9-15,82.0,64.3,47.0,45.0,40.1,30.0,79,45,17,0.00,40.00,10,6,18,0.00
2012-9-16,81.0,61.7,43.0,41.0,35.5,26.0,78,43,13,0.00,40.00,7,5,12,0.00
2012-9-17,84.0,62.9,45.0,37.0,29.9,27.0,50,32,14,0.00,40.00,9,5,18,0.00
2012-9-18,87.0,65.7,47.0,36.0,32.0,26.0,49,31,11,0.00,40.00,8,5,16,0.00
2012-9-19,87.0,64.2,45.0,39.0,35.8,28.0,67,39,13,0.00,40.00,7,5,15,0.00
2012-9-20,87.0,63.7,46.0,41.0,36.0,33.0,61,39,15,0.00,40.00,8,5,19,0.00
2012-9-21,83.0,60.3,44.0,43.0,37.9,26.0,72,47,13,0.00,40.00,10,5,17,0.00
2012-9-22,79.0,58.4,40.0,43.0,37.6,32.0,88,51,18,0.00,40.00,11,5,20,0.00
2012-9-23,69.0,57.5,49.0,41.0,36.2,32.0,65,46,29,0.00,40.00,12,6,25,0.00
2012-9-24,75.0,55.5,39.0,44.0,38.6,33.0,87,58,24,0.00,40.00,11,4,17,0.00
2012-9-25,78.0,57.2,41.0,45.0,39.6,36.0,90,58,26,0.00,40.00,9,6,15,0.00
2012-9-26,80.0,59.7,39.0,41.0,36.9,28.0,91,50,18,0.00,40.00,8,5,20,0.00
2012-9-27,83.0,62.9,41.0,37.0,29.2,18.0,47,29,16,0.00,40.00,9,5,13,0.00
2012-9-28,81.0,63.5,49.0,43.0,35.6,31.0,54,37,22,0.00,40.00,11,5,18,0.00
2012-9-29,79.0,59.3,41.0,39.0,33.3,26.0,74,42,17,0.00,40.00,8,6,15,0.00
2012-9-30,83.0,62.1,41.0,43.0,33.8,22.0,83,42,11,0.00,40.00,9,6,16,0.00
2012-10-1,85.0,61.4,45.0,37.0,29.6,25.0,46,32,14,0.00,40.00,8,5,13,0.00
2012-10-2,81.0,61.3,43.0,42.0,32.8,22.0,65,38,13,0.00,40.00,11,6,16,0.00
2012-10-3,68.0,52.0,36.0,22.0,17.3,11.0,48,28,13,0.00,40.00,11,7,22,0.00
2012-10-4,74.0,50.8,32.0,25.0,18.9,13.0,54,31,13,0.00,40.00,11,7,21,0.00
2012-10-5,69.0,47.7,33.0,30.0,19.1,14.0,47,33,21,0.00,40.00,12,7,21,0.00
2012-10-6,71.0,49.9,32.0,27.0,16.9,13.0,45,29,15,0.00,40.00,10,6,17,0.00
2012-10-7,73.0,48.4,35.0,22.0,13.9,7.0,37,27,11,0.00,40.00,8,5,13,0.00
2012-10-8,70.0,51.1,31.0,37.0,23.4,11.0,54,35,21,0.00,40.00,8,5,14,0.00
2012-10-9,73.0,52.7,35.0,38.0,30.1,21.0,82,48,14,0.00,40.00,7,5,13,0.00
2012-10-10,76.0,55.9,39.0,34.0,28.0,20.0,59,38,12,0.00,40.00,8,5,13,0.00
2012-10-11,76.0,52.1,35.0,34.0,27.4,21.0,68,43,13,0.00,40.00,8,6,14,0.00
2012-10-12,67.0,48.1,33.0,38.0,27.8,22.0,73,48,25,0.00,40.00,13,6,26,0.00
2012-10-13,65.0,52.2,44.0,47.0,43.1,32.0,95,73,48,0.00,40.00,8,5,14,0.00
2012-10-14,69.0,50.2,33.0,46.0,40.3,33.0,100,73,38,0.00,40.00,11,5,17,0.00
2012-10-15,62.0,55.0,48.0,55.0,48.3,40.0,100,79,59,0.00,40.00,10,6,19,0.68
2012-10-16,56.0,51.3,36.0,55.0,43.4,31.0,100,77,43,0.00,40.00,20,9,36,0.64
2012-10-17,64.0,42.9,28.0,36.0,31.0,27.0,97,69,28,0.00,40.00,7,5,13,0.01
2012-10-18,68.0,49.0,32.0,32.0,28.1,25.0,83,49,21,0.00,40.00,9,5,14,0.00
2012-10-19,62.0,50.6,41.0,46.0,38.4,31.0,86,64,41,0.00,40.00,16,8,32,0.00
2012-10-20,49.0,43.3,34.0,43.0,33.7,27.0,80,69,49,0.00,40.00,17,10,29,0.00
2012-10-21,49.0,35.7,24.0,31.0,25.5,21.0,95,70,33,0.00,40.00,10,4,17,0.00
2012-10-22,38.0,34.4,32.0,35.0,30.0,27.0,99,84,65,0.00,40.00,11,6,35,0.29
2012-10-23,40.0,34.1,30.0,32.0,26.4,23.0,97,74,52,0.00,40.00,14,8,25,0.03
2012-10-24,39.0,33.4,29.0,33.0,29.6,26.0,99,86,65,0.00,40.00,14,6,23,0.06
2012-10-25,46.0,34.0,25.0,30.0,27.5,24.0,97,79,52,0.00,40.00,7,3,11,0.01
2012-10-26,54.0,36.5,27.0,37.0,29.8,25.0,93,78,46,0.00,40.00,12,4,19,0.01
2012-10-27,58.0,43.8,33.0,49.0,40.2,29.0,100,88,72,0.00,40.00,8,4,20,0.00
2012-10-28,64.0,48.8,38.0,49.0,44.6,38.0,100,87,55,0.00,40.00,6,4,11,0.01
2012-10-29,64.0,52.8,46.0,46.0,42.1,38.0,97,69,41,0.00,40.00,9,5,15,0.00
2012-10-30,63.0,50.8,39.0,42.0,37.6,32.0,94,64,38,0.00,40.00,10,5,18,0.00
2012-10-31,56.0,47.7,40.0,43.0,35.8,30.0,95,66,43,0.00,40.00,14,8,37,0.47
2012-11-1,52.0,43.2,33.0,39.0,36.4,32.0,98,78,56,0.00,40.00,10,6,19,0.05
2012-11-2,47.0,38.2,30.0,39.0,34.8,30.0,99,88,68,0.00,40.00,5,3,9,0.01
2012-11-3,62.0,48.1,39.0,43.0,40.2,38.0,98,77,47,0.00,40.00,6,4,12,0.01
2012-11-4,64.0,48.2,37.0,47.0,42.4,37.0,99,83,52,0.00,40.00,5,3,9,0.00
2012-11-5,67.0,48.3,34.0,48.0,42.3,34.0,100,83,47,0.00,40.00,8,4,11,0.00
2012-11-6,68.0,48.5,33.0,45.0,40.1,33.0,100,77,40,0.00,40.00,7,4,12,0.01
2012-11-7,56.0,45.0,29.0,44.0,35.9,27.0,91,72,38,0.00,40.00,10,5,19,0.00
2012-11-8,37.0,30.4,26.0,32.0,25.8,22.0,95,83,60,0.00,40.00,7,4,17,0.08
2012-11-9,33.0,28.4,23.0,25.0,22.0,19.0,93,77,61,0.00,40.00,9,5,16,0.04
2012-11-10,36.0,27.4,20.0,21.0,18.6,16.0,90,71,46,0.00,40.00,12,4,22,0.01
2012-11-11,35.0,27.9,18.0,26.0,21.3,15.0,88,77,57,0.00,40.00,6,4,12,0.01
2012-11-12,40.0,34.5,30.0,36.0,31.9,26.0,98,90,76,0.00,40.00,7,3,13,0.06
2012-11-13,42.0,35.2,31.0,40.0,34.7,31.0,100,98,91,0.00,40.00,4,2,7,0.05
2012-11-14,50.0,35.9,29.0,38.0,32.5,28.0,100,89,64,0.00,40.00,6,4,9,0.01
2012-11-15,47.0,33.4,25.0,36.0,30.2,24.0,98,89,65,0.00,40.00,6,4,11,0.01
2012-11-16,51.0,38.5,29.0,37.0,32.7,28.0,99,82,47,0.00,40.00,9,4,17,0.02
2012-11-17,48.0,38.1,28.0,41.0,34.6,25.0,98,88,72,0.00,40.00,15,6,45,0.09
2012-11-18,37.0,32.9,26.0,30.0,27.3,25.0,96,81,65,0.00,40.00,11,6,26,0.04
2012-11-19,48.0,42.7,37.0,36.0,32.2,28.0,74,67,60,0.00,40.00,13,11,28,0.04
2012-11-20,48.0,43.6,40.0,41.0,37.7,35.0,97,80,61,0.00,40.00,20,10,35,0.39
2012-11-21,41.0,35.0,28.0,36.0,30.7,27.0,99,85,56,0.00,40.00,18,10,32,0.25
2012-11-22,43.0,31.4,23.0,33.0,28.0,22.0,98,88,61,0.00,40.00,5,3,8,0.01
2012-11-23,46.0,33.1,24.0,36.0,30.3,23.0,98,90,63,0.00,40.00,4,3,8,0.01
2012-11-24,51.0,42.7,33.0,45.0,38.1,32.0,96,84,68,0.00,40.00,12,5,18,0.01
2012-11-25,50.0,38.5,30.0,40.0,34.7,29.0,100,88,58,0.00,40.00,8,5,16,0.00
2012-11-26,30.0,27.9,27.0,29.0,27.6,25.0,99,98,95,0.00,40.00,7,6,13,0.01
2012-11-27,43.0,32.0,25.0,35.0,28.5,24.0,97,88,51,0.00,40.00,8,4,19,0.01
2012-11-28,49.0,43.8,38.0,36.0,31.4,27.0,81,62,46,0.00,40.00,13,7,33,0.01
2012-11-29,42.0,41.0,39.0,41.0,35.2,29.0,100,81,59,0.00,40.00,12,9,29,0.78
2012-11-30,47.0,41.7,38.0,41.0,37.1,30.0,100,85,62,0.00,40.00,11,7,27,0.69
2012-12-1,46.0,41.1,36.0,41.0,37.4,32.0,99,87,70,0.00,40.00,17,9,31,0.37
2012-12-2,41.0,37.3,34.0,40.0,32.2,26.0,98,82,62,0.00,40.00,17,10,31,1.12
2012-12-3,42.0,37.0,32.0,33.0,28.4,27.0,89,72,57,0.00,40.00,11,6,21,0.04
2012-12-4,43.0,39.9,35.0,41.0,37.6,33.0,97,92,87,0.00,40.00,11,8,24,0.64
2012-12-5,51.0,41.2,33.0,41.0,36.3,31.0,98,85,58,0.00,40.00,9,6,19,0.58
2012-12-6,43.0,31.2,26.0,33.0,24.6,-99.9,99,83,55,0.00,40.00,10,3,18,0.01
2012-12-7,39.0,28.3,21.0,29.0,23.6,19.0,95,83,54,0.00,40.00,7,3,15,0.01
2012-12-8,40.0,29.5,27.0,29.0,25.1,21.0,93,84,46,0.00,40.00,6,4,11,0.00
2012-12-9,46.0,32.9,25.0,29.0,25.3,22.0,91,75,51,0.00,40.00,6,3,9,0.00
2012-12-10,44.0,35.8,29.0,34.0,31.6,26.0,98,85,67,0.00,40.00,5,2,8,0.01
2012-12-11,37.0,30.5,27.0,33.0,29.4,26.0,99,95,69,0.00,40.00,13,6,23,0.00
2012-12-12,37.0,28.9,21.0,31.0,23.4,19.0,99,81,54,0.00,40.00,7,4,16,0.11
2012-12-13,38.0,23.7,15.0,23.0,18.4,13.0,93,81,53,0.00,40.00,5,3,11,0.01
2012-12-14,34.0,23.7,18.0,27.0,19.5,13.0,93,84,58,0.00,40.00,11,4,22,0.01
2012-12-15,30.0,21.8,10.0,29.0,19.7,7.0,95,91,87,0.00,40.00,13,6,22,0.01
2012-12-16,33.0,31.2,29.0,32.0,30.3,29.0,99,96,93,0.00,40.00,15,9,31,0.04
2012-12-17,35.0,27.7,17.0,33.0,26.6,15.0,99,95,91,0.00,40.00,24,13,43,0.21
2012-12-18,29.0,20.2,16.0,26.0,18.2,14.0,94,91,88,0.00,40.00,8,4,15,0.11
2012-12-19,29.0,19.9,9.0,25.0,16.3,6.0,91,86,74,0.00,40.00,11,5,21,0.02
2012-12-20,30.0,28.1,26.0,28.0,22.5,17.0,96,80,64,0.00,40.00,15,10,32,0.00
2012-12-21,34.0,30.1,29.0,31.0,28.4,27.0,98,94,83,0.00,40.00,10,6,25,0.07
2012-12-22,36.0,30.6,27.0,32.0,27.8,24.0,99,89,71,0.00,40.00,13,7,28,0.05
2012-12-23,36.0,29.7,25.0,32.0,27.3,22.0,98,91,80,0.00,40.00,15,8,37,0.05
2012-12-24,34.0,25.1,16.0,25.0,20.9,14.0,94,84,68,0.00,40.00,9,4,17,0.16
2012-12-25,33.0,25.3,19.0,29.0,23.6,18.0,98,93,80,0.00,40.00,5,3,13,0.02
2012-12-26,39.0,29.6,24.0,30.0,26.5,21.0,99,89,68,0.00,40.00,7,4,11,0.37
2012-12-27,38.0,26.5,18.0,26.0,21.4,16.0,95,82,51,0.00,40.00,6,3,11,0.30
2012-12-28,24.0,16.9,10.0,20.0,14.3,7.0,94,89,83,0.00,40.00,5,2,7,0.09
2012-12-29,38.0,23.8,19.0,26.0,20.5,17.0,94,88,59,0.00,40.00,5,2,8,0.12
2012-12-30,31.0,24.1,14.0,23.0,19.9,5.0,96,84,64,0.00,40.00,7,3,11,0.01
2012-12-31,20.0,14.4,8.0,17.0,11.8,5.0,92,89,87,0.00,40.00,6,2,9,0.00
2013-1-1,36.0,18.6,9.0,20.0,13.2,6.0,91,80,51,0.00,40.00,7,3,11,0.00